Time;durP1;ratioP1;P1;durP2;ratioP2;P2;SDS_P1;SDS_P2;PMS_P1;PMS_P2;Temp;Humidity;BMP_temperature;BMP_pressure;BME280_temperature;BME280_humidity;BME280_pressure;Samples;Min_cycle;Max_cycle;Signal;HPM_P1;HPM_P2
2022/06/07 00:00:54;;;;;;;10.38;6.28;;;12.80;99.90;;;;;;5035402;28;20037;-71
2022/06/07 00:03:20;;;;;;;11.98;6.35;;;12.90;99.90;;;;;;5053997;28;20095;-72
2022/06/07 00:05:46;;;;;;;11.88;6.80;;;12.90;99.90;;;;;;5036145;28;20033;-71
2022/06/07 00:08:12;;;;;;;11.20;6.63;;;;;;;;;;5019843;28;20419;-71
2022/06/07 00:10:38;;;;;;;14.25;7.07;;;12.80;99.90;;;;;;5053239;28;20056;-71
2022/06/07 00:13:04;;;;;;;12.27;6.75;;;12.80;99.90;;;;;;5036181;28;20083;-71
2022/06/07 00:15:30;;;;;;;13.98;6.28;;;12.70;99.90;;;;;;5053718;28;20072;-71
2022/06/07 00:17:56;;;;;;;15.07;7.25;;;;;;;;;;5019375;28;20083;-71
2022/06/07 00:20:22;;;;;;;13.52;7.85;;;;;;;;;;5035062;28;20044;-71
2022/06/07 00:22:48;;;;;;;13.20;6.70;;;;;;;;;;5036122;28;20045;-71
2022/06/07 00:25:15;;;;;;;13.55;6.65;;;12.80;99.90;;;;;;5019631;28;20047;-72
2022/06/07 00:27:42;;;;;;;15.52;6.97;;;;;;;;;;5035773;28;20507;-71
2022/06/07 00:30:11;;;;;;;15.02;6.63;;;12.90;99.90;;;;;;5018535;28;20041;-71
2022/06/07 00:32:37;;;;;;;13.45;7.18;;;;;;;;;;5035604;28;20494;-71
2022/06/07 00:35:03;;;;;;;13.27;7.03;;;13.00;99.90;;;;;;5035552;28;20037;-71
2022/06/07 00:37:29;;;;;;;16.30;6.78;;;12.80;99.90;;;;;;5035600;28;20402;-71
2022/06/07 00:39:54;;;;;;;11.40;6.55;;;12.80;99.90;;;;;;5034957;28;20041;-71
2022/06/07 00:42:20;;;;;;;13.98;6.25;;;13.00;99.90;;;;;;5035497;28;20082;-71
2022/06/07 00:44:46;;;;;;;11.48;6.53;;;12.90;99.90;;;;;;5053290;28;20509;-72
2022/06/07 00:47:19;;;;;;;13.80;6.80;;;12.80;99.90;;;;;;5018806;28;20041;-71
2022/06/07 00:49:50;;;;;;;12.77;8.13;;;12.90;99.90;;;;;;5018228;28;20037;-71
2022/06/07 00:52:18;;;;;;;11.00;6.47;;;12.80;99.90;;;;;;5035615;28;20133;-72
2022/06/07 00:54:44;;;;;;;15.88;6.55;;;;;;;;;;5035364;28;20052;-71
2022/06/07 00:57:10;;;;;;;13.13;7.18;;;12.70;99.90;;;;;;5035439;28;20045;-71
2022/06/07 00:59:36;;;;;;;12.23;6.38;;;12.80;99.90;;;;;;5034494;28;20048;-71
2022/06/07 01:02:02;;;;;;;15.13;6.70;;;;;;;;;;5034995;28;20041;-71
2022/06/07 01:04:29;;;;;;;12.55;6.55;;;;;;;;;;5035243;28;20450;-71
2022/06/07 01:12:23;;;;;;;13.93;8.02;;;12.80;99.90;;;;;;5034980;28;20049;-71
2022/06/07 01:14:49;;;;;;;16.08;7.80;;;;;;;;;;5035122;28;20045;-71
2022/06/07 01:17:15;;;;;;;12.10;7.00;;;;;;;;;;5034932;28;20037;-72
2022/06/07 01:19:41;;;;;;;17.00;6.95;;;;;;;;;;5051855;28;20048;-72
2022/06/07 01:22:08;;;;;;;18.83;7.78;;;;;;;;;;5034643;28;20120;-71
2022/06/07 01:24:33;;;;;;;14.60;7.32;;;;;;;;;;5034736;28;20044;-71
2022/06/07 01:26:59;;;;;;;15.70;7.63;;;12.90;99.90;;;;;;5034605;28;20127;-71
2022/06/07 01:29:25;;;;;;;15.13;7.47;;;;;;;;;;5033943;28;20600;-71
2022/06/07 01:31:51;;;;;;;9.98;7.15;;;12.90;99.90;;;;;;5018159;28;20041;-71
2022/06/07 01:34:16;;;;;;;17.40;7.50;;;12.90;99.90;;;;;;5034556;28;20403;-71
2022/06/07 01:36:42;;;;;;;10.77;6.45;;;13.10;99.90;;;;;;5052157;28;20051;-71
2022/06/07 01:41:55;;;;;;;14.30;7.40;;;;;;;;;;5053710;28;20045;-67
2022/06/07 01:44:39;;;;;;;15.68;7.90;;;13.10;99.90;;;;;;5072276;28;20111;-66
2022/06/07 01:47:07;;;;;;;10.40;6.38;;;12.90;99.90;;;;;;5054785;28;20033;-66
2022/06/07 01:49:33;;;;;;;12.23;7.53;;;;;;;;;;5051169;28;20064;-66
2022/06/07 01:51:59;;;;;;;14.52;7.32;;;;;;;;;;5033499;28;20053;-65
2022/06/07 01:54:25;;;;;;;12.27;6.95;;;12.90;99.90;;;;;;5051854;28;20041;-66
2022/06/07 01:56:51;;;;;;;13.77;7.50;;;;;;;;;;5034110;28;20032;-66
2022/06/07 01:59:18;;;;;;;13.50;6.32;;;13.20;99.90;;;;;;5016508;28;20045;-67
2022/06/07 02:01:45;;;;;;;13.48;6.90;;;13.10;99.90;;;;;;5051456;28;20506;-65
2022/06/07 02:04:11;;;;;;;11.57;7.55;;;;;;;;;;5051535;28;20056;-66
2022/06/07 02:06:38;;;;;;;17.10;7.25;;;12.90;99.90;;;;;;5051454;28;20037;-66
2022/06/07 02:09:06;;;;;;;13.05;6.50;;;13.10;99.90;;;;;;5033170;28;20037;-65
2022/06/07 02:11:32;;;;;;;13.05;7.57;;;13.00;99.90;;;;;;5051656;28;20073;-66
2022/06/07 02:13:58;;;;;;;16.90;8.23;;;;;;;;;;5033806;28;20130;-65
2022/06/07 02:16:24;;;;;;;10.50;7.18;;;;;;;;;;5051414;28;20510;-66
2022/06/07 02:18:51;;;;;;;15.45;7.82;;;13.00;99.90;;;;;;5033030;28;20506;-64
2022/06/07 02:21:19;;;;;;;14.07;8.30;;;13.10;99.90;;;;;;5016134;28;20045;-66
2022/06/07 02:23:45;;;;;;;12.95;7.13;;;13.00;99.90;;;;;;5033503;28;20524;-68
2022/06/07 02:26:17;;;;;;;14.63;7.45;;;13.00;99.90;;;;;;5033636;28;20033;-66
2022/06/07 02:28:46;;;;;;;19.00;8.77;;;12.90;99.90;;;;;;5033617;28;20039;-65
2022/06/07 02:31:12;;;;;;;15.02;7.80;;;13.00;99.90;;;;;;5050657;28;20040;-66
2022/06/07 02:33:39;;;;;;;13.02;8.13;;;12.80;99.90;;;;;;5033336;28;20045;-66
2022/06/07 02:36:07;;;;;;;17.60;8.45;;;13.10;99.90;;;;;;5051718;28;20465;-66
2022/06/07 02:38:33;;;;;;;12.20;6.88;;;13.00;99.90;;;;;;5033397;28;20053;-66
2022/06/07 02:41:01;;;;;;;15.05;8.70;;;13.10;99.90;;;;;;5050683;28;20487;-66
2022/06/07 02:43:27;;;;;;;12.82;7.65;;;;;;;;;;5033594;28;20037;-66
2022/06/07 02:45:53;;;;;;;16.05;8.20;;;;;;;;;;5051333;28;20099;-66
2022/06/07 02:48:19;;;;;;;13.32;8.13;;;;;;;;;;5017108;28;20044;-66
2022/06/07 02:50:45;;;;;;;13.57;7.93;;;13.20;99.90;;;;;;5050644;28;20048;-66
2022/06/07 02:53:12;;;;;;;20.02;8.75;;;13.10;99.90;;;;;;5033595;28;20128;-66
2022/06/07 02:55:38;;;;;;;14.60;8.23;;;;;;;;;;5051311;28;20048;-67
2022/06/07 02:58:04;;;;;;;13.65;7.85;;;13.00;99.90;;;;;;5033183;28;20048;-66
2022/06/07 03:00:30;;;;;;;12.45;8.20;;;13.10;99.90;;;;;;5032407;28;20048;-66
2022/06/07 03:02:56;;;;;;;13.00;7.95;;;;;;;;;;5050915;28;20450;-66
2022/06/07 03:05:22;;;;;;;14.70;7.13;;;;;;;;;;5033252;28;20094;-66
2022/06/07 03:07:48;;;;;;;15.95;8.07;;;;;;;;;;5033138;28;20044;-66
2022/06/07 03:10:14;;;;;;;7.55;6.15;;;13.00;99.90;;;;;;5032330;28;20037;-67
2022/06/07 03:12:40;;;;;;;13.23;6.22;;;;;;;;;;5033423;28;20040;-67
2022/06/07 03:15:08;;;;;;;11.05;6.05;;;13.10;99.90;;;;;;5032876;28;20045;-67
2022/06/07 03:17:34;;;;;;;12.20;5.88;;;13.20;99.90;;;;;;5050908;28;20499;-67
2022/06/07 03:20:00;;;;;;;11.75;6.30;;;;;;;;;;5032277;28;20140;-67
2022/06/07 03:22:26;;;;;;;12.18;5.80;;;;;;;;;;5050656;28;20049;-67
2022/06/07 03:24:52;;;;;;;13.40;6.13;;;;;;;;;;5050873;28;20033;-67
2022/06/07 03:27:18;;;;;;;10.27;5.90;;;;;;;;;;5032909;28;20032;-67
2022/06/07 03:29:44;;;;;;;17.08;6.38;;;;;;;;;;5032003;28;20037;-67
2022/06/07 03:32:10;;;;;;;11.82;6.18;;;;;;;;;;5052232;28;20090;-67
2022/06/07 03:34:37;;;;;;;11.90;6.93;;;12.60;99.90;;;;;;5054596;28;20082;-67
2022/06/07 03:37:03;;;;;;;18.58;7.47;;;;;;;;;;5054245;28;20041;-67
2022/06/07 03:39:30;;;;;;;15.50;7.45;;;;;;;;;;5035483;28;20091;-67
2022/06/07 03:41:56;;;;;;;16.65;6.85;;;12.50;99.90;;;;;;5036243;28;20036;-67
2022/06/07 03:44:22;;;;;;;11.88;6.95;;;12.40;99.90;;;;;;5054251;28;20033;-67
2022/06/07 03:46:47;;;;;;;13.18;7.60;;;12.20;99.90;;;;;;5036251;28;20465;-67
2022/06/07 03:49:14;;;;;;;18.75;7.35;;;12.10;99.90;;;;;;5035322;28;20033;-67
2022/06/07 03:51:40;;;;;;;10.45;6.05;;;;;;;;;;5054672;28;20033;-67
2022/06/07 03:54:05;;;;;;;13.40;6.75;;;12.10;99.90;;;;;;5038710;28;20495;-67
2022/06/07 03:56:32;;;;;;;18.50;7.43;;;12.00;99.90;;;;;;5055063;28;20048;-67
2022/06/07 03:58:58;;;;;;;9.93;6.20;;;;;;;;;;5053099;28;20049;-67
2022/06/07 04:01:25;;;;;;;15.95;7.65;;;12.00;99.90;;;;;;5035564;28;20068;-66
2022/06/07 04:03:53;;;;;;;15.18;7.28;;;11.90;99.90;;;;;;5035806;28;20041;-66
2022/06/07 04:06:24;;;;;;;15.30;7.30;;;12.00;99.90;;;;;;5036162;28;20048;-66
2022/06/07 04:08:50;;;;;;;10.50;7.07;;;12.20;99.90;;;;;;5035795;28;20216;-67
2022/06/07 04:11:18;;;;;;;12.82;6.78;;;12.00;99.90;;;;;;5053109;28;20116;-67
2022/06/07 04:13:44;;;;;;;12.45;6.65;;;12.00;99.90;;;;;;5053680;28;20441;-66
2022/06/07 04:16:13;;;;;;;18.95;7.85;;;12.10;99.90;;;;;;5035650;28;20044;-67
2022/06/07 04:18:39;;;;;;;14.57;6.65;;;12.10;99.90;;;;;;5035611;28;20037;-67
2022/06/07 04:21:06;;;;;;;16.27;7.43;;;;;;;;;;5052910;28;20045;-67
2022/06/07 04:23:32;;;;;;;13.93;7.70;;;12.50;99.90;;;;;;5053423;28;20095;-67
2022/06/07 04:26:08;;;;;;;18.00;7.35;;;12.10;99.90;;;;;;5035756;28;20051;-67
2022/06/07 04:28:34;;;;;;;15.93;6.70;;;;;;;;;;5035343;28;20040;-67
2022/06/07 04:31:00;;;;;;;14.93;6.32;;;;;;;;;;5034740;28;20487;-67
2022/06/07 04:33:26;;;;;;;15.57;6.63;;;;;;;;;;5053327;28;20087;-67
2022/06/07 04:35:52;;;;;;;16.63;6.10;;;;;;;;;;5053281;28;20047;-67
2022/06/07 04:38:18;;;;;;;12.45;5.53;;;;;;;;;;5018499;28;20534;-67
2022/06/07 04:40:44;;;;;;;13.15;6.75;;;12.60;99.90;;;;;;5052357;28;20076;-67
2022/06/07 04:43:12;;;;;;;16.05;6.68;;;12.70;99.90;;;;;;5052612;28;20037;-67
2022/06/07 04:45:39;;;;;;;18.77;8.63;;;12.40;99.90;;;;;;5053080;28;20044;-67
2022/06/07 04:48:09;;;;;;;17.13;7.28;;;12.60;99.90;;;;;;5053015;28;20396;-67
2022/06/07 04:50:35;;;;;;;14.27;7.07;;;;;;;;;;5052168;28;20391;-67
2022/06/07 04:53:01;;;;;;;14.38;7.15;;;;;;;;;;5035067;28;20053;-67
2022/06/07 04:55:27;;;;;;;13.75;6.47;;;12.40;99.90;;;;;;5034899;28;20041;-67
2022/06/07 04:57:53;;;;;;;13.00;7.35;;;;;;;;;;5052759;28;20029;-67
2022/06/07 05:00:19;;;;;;;11.57;6.32;;;12.30;99.90;;;;;;5017927;28;20178;-67
2022/06/07 05:02:47;;;;;;;13.02;6.82;;;12.30;99.90;;;;;;5052658;28;20398;-67
2022/06/07 05:05:15;;;;;;;11.98;6.20;;;12.50;99.90;;;;;;5034784;28;20045;-67
2022/06/07 05:07:41;;;;;;;15.70;5.50;;;;;;;;;;5035824;28;20055;-67
2022/06/07 05:10:09;;;;;;;17.25;6.13;;;12.50;99.90;;;;;;5052135;28;20126;-67
2022/06/07 05:12:35;;;;;;;11.65;5.75;;;12.50;99.90;;;;;;5052603;28;20045;-67
2022/06/07 05:15:01;;;;;;;15.05;5.68;;;;;;;;;;5035177;28;20063;-67
2022/06/07 05:17:27;;;;;;;13.45;6.35;;;;;;;;;;5018303;28;20640;-67
2022/06/07 05:19:53;;;;;;;11.63;5.28;;;12.50;99.90;;;;;;5032311;28;20097;-67
2022/06/07 05:22:19;;;;;;;11.23;4.20;;;;;;;;;;5034451;28;20148;-67
2022/06/07 05:24:45;;;;;;;5.57;3.63;;;;;;;;;;5052570;28;20037;-67
2022/06/07 05:27:15;;;;;;;13.38;4.05;;;12.40;99.90;;;;;;5034559;28;20102;-67
2022/06/07 05:29:50;;;;;;;8.23;3.35;;;12.10;99.90;;;;;;5051543;28;20124;-67
2022/06/07 05:32:17;;;;;;;8.10;3.55;;;12.30;99.90;;;;;;5017746;28;20037;-67
2022/06/07 05:34:43;;;;;;;8.90;3.72;;;12.40;99.90;;;;;;5051950;28;20063;-67
2022/06/07 05:37:18;;;;;;;11.70;4.18;;;12.40;99.90;;;;;;5052020;28;20049;-67
2022/06/07 05:39:45;;;;;;;8.48;4.32;;;12.40;99.90;;;;;;5051390;28;20076;-67
2022/06/07 05:42:12;;;;;;;10.93;4.35;;;12.20;99.90;;;;;;5017534;28;20041;-67
2022/06/07 05:44:38;;;;;;;7.05;3.50;;;12.40;99.90;;;;;;5051831;28;20556;-67
2022/06/07 05:47:04;;;;;;;8.00;3.67;;;12.30;99.90;;;;;;5033973;28;20044;-67
2022/06/07 05:49:30;;;;;;;7.20;3.67;;;;;;;;;;5032961;28;20040;-67
2022/06/07 05:51:57;;;;;;;13.75;4.30;;;12.10;99.90;;;;;;5033989;28;20044;-67
2022/06/07 05:54:23;;;;;;;8.13;3.97;;;;;;;;;;5051572;28;20037;-66
2022/06/07 05:56:49;;;;;;;10.90;4.47;;;;;;;;;;5033113;28;20052;-67
2022/06/07 05:59:15;;;;;;;10.43;4.43;;;12.20;99.90;;;;;;5050832;28;20037;-66
2022/06/07 06:01:41;;;;;;;8.75;4.65;;;;;;;;;;5051341;28;20032;-65
2022/06/07 06:04:08;;;;;;;8.15;4.07;;;12.20;99.90;;;;;;5043622;28;20498;-67
2022/06/07 06:06:35;;;;;;;12.23;4.90;;;12.10;99.90;;;;;;5057417;28;20106;-67
2022/06/07 06:11:46;;;;;;;6.18;3.15;;;;;;;;;;5050765;28;20425;-66
2022/06/07 06:14:12;;;;;;;8.25;2.70;;;;;;;;;;5050633;28;20040;-67
2022/06/07 06:16:38;;;;;;;12.75;2.58;;;;;;;;;;5049247;28;20049;-66
2022/06/07 06:19:05;;;;;;;6.85;2.10;;;;;;;;;;5043191;28;20052;-66
2022/06/07 06:21:37;;;;;;;10.75;3.20;;;12.20;99.90;;;;;;5055538;28;20534;-66
2022/06/07 06:24:03;;;;;;;8.38;2.22;;;;;;;;;;5045315;28;20402;-68
2022/06/07 06:26:29;;;;;;;8.70;2.42;;;;;;;;;;5052067;28;20454;-68
2022/06/07 06:28:56;;;;;;;10.25;3.08;;;;;;;;;;5010487;28;20037;-67
2022/06/07 06:31:22;;;;;;;9.43;2.58;;;12.40;99.90;;;;;;5026781;28;20047;-68
2022/06/07 06:33:50;;;;;;;10.10;2.63;;;12.30;99.90;;;;;;5030966;28;20538;-67
2022/06/07 06:36:25;;;;;;;6.38;1.90;;;12.40;99.90;;;;;;5049800;28;20044;-67
2022/06/07 06:38:51;;;;;;;8.93;2.92;;;;;;;;;;5048514;28;20045;-66
2022/06/07 06:41:28;;;;;;;8.00;2.45;;;12.30;99.90;;;;;;5045984;28;20048;-67
2022/06/07 06:43:55;;;;;;;10.38;1.90;;;12.40;99.90;;;;;;5049615;28;20044;-67
2022/06/07 06:46:24;;;;;;;6.63;2.35;;;12.40;99.90;;;;;;5021015;28;20171;-67
2022/06/07 06:48:50;;;;;;;8.77;2.40;;;12.20;99.90;;;;;;5033356;28;20056;-67
2022/06/07 06:51:19;;;;;;;11.52;2.13;;;12.40;99.90;;;;;;5038089;28;20053;-67
2022/06/07 06:53:46;;;;;;;10.85;2.33;;;;;;;;;;5013878;28;20044;-67
2022/06/07 06:56:12;;;;;;;10.73;2.17;;;12.60;99.90;;;;;;5018628;28;20128;-67
2022/06/07 06:58:40;;;;;;;6.50;1.65;;;12.80;99.90;;;;;;5019478;28;20041;-68
2022/06/07 07:01:11;;;;;;;8.10;2.30;;;12.80;99.90;;;;;;5007231;28;20226;-67
2022/06/07 07:03:40;;;;;;;8.00;2.03;;;12.80;99.90;;;;;;5028490;28;20518;-67
2022/06/07 07:06:07;;;;;;;11.48;2.33;;;13.00;99.90;;;;;;5037780;28;20538;-67
2022/06/07 07:08:36;;;;;;;7.32;2.13;;;13.30;99.90;;;;;;5022379;28;20040;-67
2022/06/07 07:11:12;;;;;;;10.50;2.75;;;13.20;99.90;;;;;;5046028;28;20037;-67
2022/06/07 07:13:39;;;;;;;9.85;2.30;;;13.10;99.90;;;;;;5031981;28;20144;-67
2022/06/07 07:16:10;;;;;;;8.30;2.50;;;12.80;99.90;;;;;;5042371;28;20037;-66
2022/06/07 07:18:37;;;;;;;7.20;2.55;;;;;;;;;;5053045;28;20037;-67
2022/06/07 07:21:07;;;;;;;12.10;2.38;;;13.10;99.90;;;;;;5045400;28;20037;-65
2022/06/07 07:23:34;;;;;;;11.50;2.70;;;13.30;99.90;;;;;;5047535;28;20045;-67
2022/06/07 07:26:06;;;;;;;7.40;1.83;;;13.40;99.90;;;;;;5046418;28;20164;-66
2022/06/07 07:28:36;;;;;;;9.88;1.75;;;13.60;99.90;;;;;;5036508;28;20040;-67
2022/06/07 07:31:04;;;;;;;8.73;2.28;;;13.60;99.90;;;;;;5037004;28;20525;-67
2022/06/07 07:33:31;;;;;;;10.07;1.77;;;;;;;;;;5049027;28;20128;-65
2022/06/07 07:35:57;;;;;;;17.33;2.08;;;;;;;;;;5026257;28;20056;-67
2022/06/07 07:38:24;;;;;;;10.05;2.67;;;13.70;99.90;;;;;;5023452;22;1080864;-69
2022/06/07 07:40:50;;;;;;;10.32;2.60;;;13.80;99.90;;;;;;5042502;28;20076;-69
2022/06/07 07:43:16;;;;;;;8.00;1.52;;;;;;;;;;5018083;28;20055;-72
2022/06/07 07:45:42;;;;;;;10.80;2.45;;;13.80;99.90;;;;;;5030249;28;20265;-69
2022/06/07 07:48:08;;;;;;;11.38;2.47;;;;;;;;;;5048316;28;20032;-70
2022/06/07 07:50:34;;;;;;;6.70;1.88;;;;;;;;;;5040710;28;20045;-69
2022/06/07 07:53:00;;;;;;;7.63;2.17;;;14.00;99.90;;;;;;5040507;28;20047;-69
2022/06/07 07:55:26;;;;;;;4.70;1.83;;;14.00;99.90;;;;;;5039975;28;20045;-70
2022/06/07 07:57:51;;;;;;;7.22;1.75;;;14.00;99.90;;;;;;5000734;28;20029;-70
2022/06/07 08:00:18;;;;;;;8.25;2.13;;;;;;;;;;5025718;28;20033;-70
2022/06/07 08:02:44;;;;;;;8.88;1.90;;;;;;;;;;5034161;28;20515;-70
2022/06/07 08:05:10;;;;;;;9.73;2.15;;;14.20;99.90;;;;;;5011818;28;20502;-69
2022/06/07 08:07:36;;;;;;;6.47;1.95;;;;;;;;;;5029598;28;20033;-71
2022/06/07 08:10:05;;;;;;;7.10;1.60;;;14.20;99.90;;;;;;5033857;28;20041;-70
2022/06/07 08:12:31;;;;;;;14.43;2.42;;;14.10;99.90;;;;;;5040586;28;20113;-70
2022/06/07 08:14:58;;;;;;;19.88;2.42;;;14.10;99.90;;;;;;5030042;28;20048;-70
2022/06/07 08:17:25;;;;;;;9.07;2.30;;;14.30;99.90;;;;;;5036398;28;20044;-70
2022/06/07 08:19:52;;;;;;;7.95;1.90;;;;;;;;;;5022855;28;20044;-70
2022/06/07 08:22:19;;;;;;;7.35;1.73;;;14.30;99.90;;;;;;5035347;28;20103;-70
2022/06/07 08:24:45;;;;;;;8.25;1.77;;;;;;;;;;5041459;28;20104;-70
2022/06/07 08:27:11;;;;;;;9.35;2.33;;;;;;;;;;5041869;28;20381;-69
2022/06/07 08:29:38;;;;;;;9.65;2.20;;;;;;;;;;5036638;28;20125;-69
2022/06/07 08:32:04;;;;;;;12.10;2.03;;;14.20;99.90;;;;;;5041019;28;20112;-70
2022/06/07 08:39:58;;;;;;;17.45;3.10;;;14.20;99.90;;;;;;5032114;28;20111;-69
2022/06/07 08:42:34;;;;;;;8.82;2.00;;;14.30;99.90;;;;;;5036208;28;20444;-70
2022/06/07 08:45:07;;;;;;;10.15;1.70;;;14.40;99.90;;;;;;5038367;28;20033;-69
2022/06/07 08:47:53;;;;;;;5.40;1.60;;;14.40;99.90;;;;;;5022653;28;20045;-69
2022/06/07 08:50:26;;;;;;;8.70;1.60;;;14.50;99.90;;;;;;5036406;28;20032;-69
2022/06/07 08:53:18;;;;;;;10.40;2.83;;;14.30;99.90;;;;;;5004589;28;20049;-69
2022/06/07 08:55:53;;;;;;;6.05;1.85;;;14.80;99.90;;;;;;5017873;28;20041;-69
2022/06/07 08:58:19;;;;;;;7.80;1.58;;;;;;;;;;5014536;28;20056;-70
2022/06/07 09:00:50;;;;;;;8.45;1.75;;;15.10;99.90;;;;;;5016016;28;20124;-69
2022/06/07 09:03:16;;;;;;;12.60;2.88;;;;;;;;;;5013267;28;20041;-72
2022/06/07 09:05:42;;;;;;;7.20;1.70;;;;;;;;;;5014000;28;20407;-69
2022/06/07 09:08:12;;;;;;;11.95;2.30;;;15.40;99.90;;;;;;5015330;28;20099;-69
2022/06/07 09:13:24;;;;;;;11.10;2.28;;;15.20;99.90;;;;;;5014907;28;20057;-69
2022/06/07 09:15:55;;;;;;;9.82;2.42;;;15.10;99.90;;;;;;5032520;28;20052;-70
2022/06/07 09:18:26;;;;;;;11.30;2.00;;;14.70;99.90;;;;;;5014964;28;20051;-69
2022/06/07 09:20:56;;;;;;;8.45;1.92;;;14.60;99.90;;;;;;5014000;28;20049;-69
2022/06/07 09:23:45;;;;;;;5.90;1.60;;;14.80;99.90;;;;;;5014571;28;20137;-69
2022/06/07 09:26:20;;;;;;;10.02;2.28;;;14.70;99.90;;;;;;5032280;28;20038;-69
2022/06/07 09:28:47;;;;;;;8.55;1.90;;;14.50;99.90;;;;;;5014663;28;20061;-69
2022/06/07 09:31:17;;;;;;;8.85;1.30;;;14.40;99.90;;;;;;5014191;28;20068;-69
2022/06/07 09:34:05;;;;;;;7.53;2.35;;;14.50;99.90;;;;;;5014618;28;20068;-69
2022/06/07 09:36:33;;;;;;;4.50;1.10;;;14.50;99.90;;;;;;5014367;28;20511;-69
2022/06/07 09:39:21;;;;;;;5.93;2.08;;;14.50;99.90;;;;;;5031642;28;20045;-69
2022/06/07 09:41:58;;;;;;;5.20;1.35;;;14.60;99.90;;;;;;5000845;28;20054;-69
2022/06/07 09:44:32;;;;;;;6.57;1.55;;;14.70;99.90;;;;;;5032242;28;20038;-69
2022/06/07 09:47:12;;;;;;;4.45;1.00;;;14.50;99.90;;;;;;5014187;28;20045;-70
2022/06/07 09:49:59;;;;;;;10.35;1.83;;;14.80;99.90;;;;;;4997423;28;20048;-69
2022/06/07 09:52:42;;;;;;;7.40;1.50;;;14.90;99.90;;;;;;5032344;28;20163;-70
2022/06/07 09:55:27;;;;;;;;;;;15.00;99.90;;;;;;5030619;28;20045;-70
2022/06/07 09:58:01;;;;;;;7.05;1.80;;;15.10;99.90;;;;;;5014479;28;19917;-70
2022/06/07 10:00:50;;;;;;;6.43;1.38;;;15.20;99.90;;;;;;5013545;28;20053;-69
2022/06/07 10:03:30;;;;;;;6.47;1.73;;;15.50;99.90;;;;;;5031662;28;20049;-70
2022/06/07 10:06:08;;;;;;;12.65;2.90;;;15.60;99.90;;;;;;5032017;28;20152;-70
2022/06/07 10:08:41;;;;;;;9.63;2.10;;;15.40;99.90;;;;;;5031881;28;20042;-70
2022/06/07 10:11:30;;;;;;;10.70;2.78;;;15.40;99.90;;;;;;4997193;28;20061;-70
2022/06/07 10:13:57;;;;;;;8.23;1.83;;;;;;;;;;5014073;28;20065;-70
2022/06/07 10:16:35;;;;;;;7.03;2.00;;;14.90;99.90;;;;;;4998250;28;20099;-70
2022/06/07 10:19:32;;;;;;;10.60;2.47;;;14.80;99.90;;;;;;4996971;28;20124;-69
2022/06/07 10:22:53;;;;;;;10.05;2.50;;;14.80;99.90;;;;;;5031246;28;20056;-70
2022/06/07 10:25:27;;;;;;;10.15;1.90;;;14.80;99.90;;;;;;4957281;28;20045;-70
2022/06/07 10:28:07;;;;;;;8.32;2.22;;;14.70;99.90;;;;;;5031576;28;20073;-69
2022/06/07 10:30:44;;;;;;;8.90;2.05;;;14.70;99.90;;;;;;5013055;28;20041;-70
2022/06/07 10:33:21;;;;;;;4.15;1.42;;;14.90;99.90;;;;;;5013931;28;20050;-70
2022/06/07 10:36:03;;;;;;;8.60;1.30;;;14.90;99.90;;;;;;5013583;28;20046;-70
2022/06/07 10:38:40;;;;;;;4.60;1.50;;;15.00;99.90;;;;;;5031075;28;20053;-70
2022/06/07 10:41:38;;;;;;;5.30;1.42;;;15.10;99.90;;;;;;5007496;28;20041;-69
2022/06/07 10:44:14;;;;;;;8.20;1.08;;;15.00;99.90;;;;;;5032853;28;20048;-70
2022/06/07 10:46:42;;;;;;;7.97;1.35;;;15.10;99.90;;;;;;5000645;28;20072;-69
2022/06/07 10:49:39;;;;;;;5.82;1.08;;;15.00;99.90;;;;;;5034273;28;20036;-68
2022/06/07 10:52:21;;;;;;;3.35;1.17;;;15.10;99.90;;;;;;5027893;28;20043;-68
2022/06/07 10:54:56;;;;;;;2.70;0.93;;;15.20;99.90;;;;;;5038862;28;20033;-69
2022/06/07 10:57:37;;;;;;;6.90;1.67;;;15.40;99.90;;;;;;5025324;28;20045;-68
2022/06/07 11:01:07;;;;;;;5.15;1.23;;;15.30;99.90;;;;;;5007017;28;20450;-68
2022/06/07 11:03:39;;;;;;;5.80;1.00;;;15.20;99.90;;;;;;4934068;28;20047;-68
2022/06/07 11:09:22;;;;;;;5.57;1.52;;;15.20;99.90;;;;;;5033952;28;20546;-68
2022/06/07 11:11:52;;;;;;;8.80;1.40;;;15.40;99.90;;;;;;5001057;28;20097;-68
2022/06/07 11:15:00;;;;;;;6.68;1.95;;;15.20;99.90;;;;;;5014601;28;20038;-68
2022/06/07 11:17:31;;;;;;;5.65;1.63;;;15.40;99.90;;;;;;5022295;28;20041;-68
2022/06/07 11:20:00;;;;;;;8.10;1.73;;;15.50;99.90;;;;;;5016986;28;20048;-68
2022/06/07 11:22:36;;;;;;;8.63;1.95;;;15.10;99.90;;;;;;5004880;28;20060;-68
2022/06/07 11:25:34;;;;;;;4.78;1.33;;;15.70;99.90;;;;;;5012774;28;20227;-67
2022/06/07 11:28:07;;;;;;;5.38;1.10;;;15.60;99.90;;;;;;4995095;28;20110;-69
2022/06/07 11:30:37;;;;;;;6.93;1.10;;;15.60;99.90;;;;;;5013391;28;20049;-69
2022/06/07 11:33:06;;;;;;;5.70;2.05;;;15.80;99.90;;;;;;4999631;28;20048;-69
2022/06/07 11:36:08;;;;;;;7.40;1.83;;;15.70;99.90;;;;;;5015727;28;20046;-69
2022/06/07 11:38:55;;;;;;;10.23;1.85;;;16.10;99.90;;;;;;4975719;28;20049;-71
2022/06/07 11:42:07;;;;;;;7.38;1.80;;;15.70;99.90;;;;;;5000970;28;20079;-69
2022/06/07 11:44:39;;;;;;;9.55;2.03;;;15.70;99.90;;;;;;4938331;28;20446;-69
2022/06/07 11:47:08;;;;;;;15.18;2.22;;;15.70;99.90;;;;;;5013758;28;20044;-69
2022/06/07 11:49:46;;;;;;;8.02;2.28;;;15.80;99.90;;;;;;5005893;28;20050;-69
2022/06/07 11:52:12;;;;;;;7.82;1.85;;;;;;;;;;5026538;28;20029;-69
2022/06/07 11:54:44;;;;;;;11.23;2.50;;;16.10;99.90;;;;;;5041563;28;20380;-69
2022/06/07 11:57:31;;;;;;;7.13;1.80;;;16.10;99.90;;;;;;5006964;28;20037;-69
2022/06/07 11:59:57;;;;;;;5.45;1.50;;;;;;;;;;5016875;28;20037;-69
2022/06/07 12:02:27;;;;;;;9.63;1.88;;;15.90;99.90;;;;;;5027494;28;20052;-69
2022/06/07 12:04:58;;;;;;;8.63;1.88;;;15.70;99.90;;;;;;5022048;28;20847;-69
2022/06/07 12:07:51;;;;;;;6.35;1.35;;;15.80;99.90;;;;;;5045369;28;21595;-69
2022/06/07 12:10:16;;;;;;;10.18;1.92;;;15.80;99.90;;;;;;5038222;28;20045;-69
2022/06/07 12:13:10;;;;;;;11.25;1.90;;;15.90;99.90;;;;;;5029439;28;20056;-70
2022/06/07 12:15:44;;;;;;;8.48;1.33;;;16.00;99.90;;;;;;5003263;28;20053;-69
2022/06/07 12:18:19;;;;;;;7.15;2.22;;;16.20;99.90;;;;;;5033341;28;20045;-70
2022/06/07 12:21:02;;;;;;;4.65;1.45;;;16.10;99.90;;;;;;5008684;28;20107;-69
2022/06/07 12:23:35;;;;;;;5.93;1.70;;;16.00;99.90;;;;;;5020007;28;20042;-69
2022/06/07 12:26:26;;;;;;;4.18;1.27;;;16.10;99.90;;;;;;5038670;28;20132;-70
2022/06/07 12:28:58;;;;;;;7.93;1.60;;;16.30;99.90;;;;;;5039852;28;20055;-68
2022/06/07 12:31:28;;;;;;;2.57;1.27;;;16.50;99.90;;;;;;5047795;28;20040;-69
2022/06/07 12:33:57;;;;;;;6.70;1.23;;;16.10;99.90;;;;;;5039139;28;20299;-69
2022/06/07 12:36:35;;;;;;;6.65;1.70;;;16.30;99.90;;;;;;5039193;28;20116;-69
2022/06/07 12:39:10;;;;;;;8.38;1.63;;;16.30;99.90;;;;;;5039529;28;20041;-68
2022/06/07 12:41:52;;;;;;;6.40;1.50;;;16.30;99.90;;;;;;5039415;28;20088;-66
2022/06/07 12:44:41;;;;;;;6.15;1.30;;;16.10;99.90;;;;;;5044967;28;20048;-70
2022/06/07 12:47:20;;;;;;;8.30;1.70;;;16.30;99.90;;;;;;5003045;28;20092;-69
2022/06/07 12:49:46;;;;;;;6.50;1.95;;;16.50;99.90;;;;;;5020010;28;20041;-69
2022/06/07 12:52:32;;;;;;;7.30;1.42;;;16.70;99.90;;;;;;5011512;28;20040;-70
2022/06/07 12:55:30;;;;;;;3.40;1.50;;;16.90;99.90;;;;;;5019635;28;20052;-68
2022/06/07 12:58:00;;;;;;;5.07;2.03;;;16.80;99.90;;;;;;5033945;28;20044;-69
2022/06/07 13:00:34;;;;;;;6.43;1.33;;;16.90;99.90;;;;;;5014823;28;20043;-69
2022/06/07 13:03:17;;;;;;;5.68;1.38;;;17.10;99.90;;;;;;5021288;28;20572;-68
2022/06/07 13:05:42;;;;;;;4.73;2.27;;;17.00;99.90;;;;;;5025452;28;20081;-70
2022/06/07 13:08:20;;;;;;;4.70;1.70;;;17.30;99.90;;;;;;5040235;28;20728;-70
2022/06/07 13:10:47;;;;;;;5.00;1.50;;;17.20;99.90;;;;;;5021110;28;20037;-70
2022/06/07 13:13:23;;;;;;;5.32;1.38;;;17.40;99.90;;;;;;5042006;28;20044;-68
2022/06/07 13:16:12;;;;;;;7.35;1.63;;;17.20;99.90;;;;;;5017585;28;20419;-70
2022/06/07 13:18:56;;;;;;;10.25;1.85;;;17.00;99.90;;;;;;5014325;28;20075;-69
2022/06/07 13:21:31;;;;;;;7.72;2.28;;;16.80;99.90;;;;;;5010395;28;20037;-68
2022/06/07 13:23:58;;;;;;;8.05;1.77;;;16.60;99.90;;;;;;5008819;28;20038;-68
2022/06/07 13:26:29;;;;;;;7.30;1.70;;;16.40;99.90;;;;;;5013400;28;20069;-69
2022/06/07 13:29:10;;;;;;;5.72;2.25;;;16.50;99.90;;;;;;5012800;28;20048;-69
2022/06/07 13:31:41;;;;;;;3.45;1.23;;;16.50;99.90;;;;;;5014513;28;20040;-70
2022/06/07 13:34:20;;;;;;;7.07;1.20;;;16.30;99.90;;;;;;5031355;28;20487;-70
2022/06/07 13:36:59;;;;;;;8.13;2.35;;;16.30;99.90;;;;;;5014934;28;20048;-70
2022/06/07 13:39:27;;;;;;;9.25;1.92;;;16.30;99.90;;;;;;5049060;22;20048;-79
2022/06/07 13:42:13;;;;;;;4.88;1.73;;;16.30;99.90;;;;;;5038137;28;20076;-79
2022/06/07 13:44:53;;;;;;;13.90;2.35;;;16.10;99.90;;;;;;5037947;28;20392;-79
2022/06/07 13:47:25;;;;;;;9.45;1.67;;;16.10;99.90;;;;;;5038006;28;20514;-78
2022/06/07 13:55:47;;;;;;;5.53;1.90;;;16.40;99.90;;;;;;5038371;28;20446;-79
2022/06/07 13:58:14;;;;;;;7.82;2.60;;;16.50;99.90;;;;;;5037611;28;20044;-78